Time;durP1;ratioP1;P1;durP2;ratioP2;P2;SDS_P1;SDS_P2;PMS_P1;PMS_P2;Temp;Humidity;BMP_temperature;BMP_pressure;BME280_temperature;BME280_humidity;BME280_pressure;Samples;Min_cycle;Max_cycle;Signal;HPM_P1;HPM_P2
2024/03/31 00:00:47;;;;;;;11.47;6.00;;;;;;;9.95;100.00;96533.09;5092509;28;20234;-80
2024/03/31 00:03:14;;;;;;;14.00;5.27;;;;;;;9.87;100.00;96535.59;5083184;28;20274;-78
2024/03/31 00:05:40;;;;;;;11.80;5.53;;;;;;;9.81;100.00;96536.16;5079384;28;20203;-80
2024/03/31 00:08:07;;;;;;;15.43;5.30;;;;;;;9.81;100.00;96537.00;5079190;28;20732;-77
2024/03/31 00:10:33;;;;;;;15.27;5.30;;;;;;;9.85;100.00;96532.28;5060815;28;20315;-78
2024/03/31 00:12:59;;;;;;;10.47;4.63;;;;;;;9.87;100.00;96539.09;5077240;28;20300;-79
2024/03/31 00:15:27;;;;;;;13.50;5.40;;;;;;;9.88;100.00;96537.25;5075414;28;20294;-79
2024/03/31 00:17:52;;;;;;;13.30;4.87;;;;;;;9.86;100.00;96533.94;5076228;28;20206;-79
2024/03/31 00:20:19;;;;;;;11.20;4.90;;;;;;;9.88;100.00;96537.25;5075374;28;20820;-80
2024/03/31 00:22:46;;;;;;;10.43;4.43;;;;;;;9.87;100.00;96540.88;5075255;28;20208;-80
2024/03/31 00:25:13;;;;;;;14.07;3.47;;;;;;;9.88;100.00;96538.13;5075546;28;20221;-79
2024/03/31 00:27:38;;;;;;;10.40;3.87;;;;;;;9.95;100.00;96535.72;5074176;28;20854;-79
2024/03/31 00:30:06;;;;;;;9.93;3.93;;;;;;;10.00;100.00;96544.06;5074331;28;20264;-79
2024/03/31 00:32:33;;;;;;;6.60;3.47;;;;;;;10.00;100.00;96552.81;5074945;28;20227;-79
2024/03/31 00:35:00;;;;;;;11.67;3.83;;;;;;;9.97;100.00;96557.56;5075329;28;20648;-78
2024/03/31 00:37:25;;;;;;;12.33;3.87;;;;;;;9.97;100.00;96562.81;5074718;28;20236;-79
2024/03/31 00:39:52;;;;;;;16.37;4.93;;;;;;;9.95;100.00;96575.31;5074980;28;20230;-78
2024/03/31 00:42:17;;;;;;;13.30;5.07;;;;;;;9.95;100.00;96581.44;5082094;28;20211;-77
2024/03/31 00:44:44;;;;;;;12.17;4.40;;;;;;;9.95;100.00;96585.88;5085694;28;20242;-78
2024/03/31 00:47:09;;;;;;;12.87;4.43;;;;;;;9.93;100.00;96583.38;5089824;28;20264;-78
2024/03/31 00:49:37;;;;;;;12.87;4.80;;;;;;;9.95;100.00;96580.59;5089064;28;20236;-78
2024/03/31 00:52:03;;;;;;;14.70;3.77;;;;;;;10.02;100.00;96586.97;5083163;28;20211;-78
2024/03/31 00:54:31;;;;;;;12.53;4.30;;;;;;;9.98;100.00;96588.25;5064159;28;20208;-78
2024/03/31 00:56:57;;;;;;;11.07;3.80;;;;;;;9.98;100.00;96582.97;5082185;28;20210;-79
2024/03/31 00:59:23;;;;;;;6.17;3.17;;;;;;;9.99;100.00;96581.97;5077842;28;20206;-78
2024/03/31 01:01:49;;;;;;;9.53;3.30;;;;;;;9.97;100.00;96584.75;5090192;28;20239;-80
2024/03/31 01:04:16;;;;;;;9.17;3.43;;;;;;;9.96;100.00;96579.59;5074845;28;20205;-79
2024/03/31 01:06:43;;;;;;;8.80;4.40;;;;;;;9.85;100.00;96587.69;5075476;28;20281;-79
2024/03/31 01:09:09;;;;;;;8.40;4.60;;;;;;;9.83;100.00;96568.50;5077422;28;20207;-78
2024/03/31 01:11:36;;;;;;;10.77;4.13;;;;;;;9.77;100.00;96563.78;5081837;28;20283;-77
2024/03/31 01:14:05;;;;;;;10.20;3.93;;;;;;;9.68;100.00;96559.34;5080394;28;20210;-80
2024/03/31 01:16:31;;;;;;;16.27;3.63;;;;;;;9.62;100.00;96557.28;5078153;28;20211;-79
2024/03/31 01:18:57;;;;;;;14.10;4.43;;;;;;;9.59;100.00;96557.53;5075180;28;20207;-79
2024/03/31 01:21:25;;;;;;;10.67;4.43;;;;;;;9.54;100.00;96559.78;5073269;28;20231;-80
2024/03/31 01:23:56;;;;;;;14.60;4.33;;;;;;;9.53;100.00;96558.94;5073661;28;20207;-79
2024/03/31 01:26:22;;;;;;;14.53;3.87;;;;;;;9.52;100.00;96569.59;5073733;28;20212;-79
2024/03/31 01:28:48;;;;;;;14.20;4.63;;;;;;;9.53;100.00;96574.75;5073462;28;20566;-79
2024/03/31 01:31:15;;;;;;;12.90;4.63;;;;;;;9.50;100.00;96574.19;5073548;28;20227;-79
2024/03/31 01:33:41;;;;;;;11.10;4.37;;;;;;;9.47;100.00;96572.66;5073460;28;20218;-79
2024/03/31 01:36:07;;;;;;;12.13;4.07;;;;;;;9.44;100.00;96582.66;5074372;28;20204;-78
2024/03/31 01:38:33;;;;;;;7.97;3.63;;;;;;;9.49;100.00;96588.34;5074455;28;20230;-78
2024/03/31 01:41:00;;;;;;;7.70;4.10;;;;;;;9.42;100.00;96590.69;5074658;28;20231;-78
2024/03/31 01:43:27;;;;;;;17.07;4.50;;;;;;;9.46;100.00;96592.09;5075004;28;20649;-78
2024/03/31 01:45:53;;;;;;;9.13;3.83;;;;;;;9.60;100.00;96596.16;5077733;28;20220;-78
2024/03/31 01:48:20;;;;;;;14.03;4.07;;;;;;;9.57;100.00;96583.22;5089284;28;20231;-78
2024/03/31 01:50:45;;;;;;;13.10;3.93;;;;;;;9.60;100.00;96586.41;5086721;28;20238;-78
2024/03/31 01:53:12;;;;;;;13.83;4.50;;;;;;;9.65;100.00;96578.09;5073876;28;20741;-78
2024/03/31 01:55:38;;;;;;;16.63;4.13;;;;;;;9.58;100.00;96566.41;5074484;28;20700;-78
2024/03/31 01:58:06;;;;;;;9.13;3.50;;;;;;;9.65;100.00;96572.81;5074280;28;20199;-78
2024/03/31 02:00:31;;;;;;;13.43;3.50;;;;;;;9.71;100.00;96574.91;5073893;28;20231;-78
2024/03/31 02:02:58;;;;;;;11.50;3.97;;;;;;;9.66;100.00;96574.50;5074666;28;20570;-78
2024/03/31 02:05:25;;;;;;;14.40;3.30;;;;;;;9.63;100.00;96564.22;5074250;28;20209;-78
2024/03/31 02:07:52;;;;;;;10.13;3.47;;;;;;;9.63;100.00;96556.28;5074602;28;20229;-78
2024/03/31 02:10:17;;;;;;;14.43;3.30;;;;;;;9.62;100.00;96552.81;5074479;28;20238;-78
2024/03/31 02:12:44;;;;;;;13.20;3.63;;;;;;;9.67;100.00;96544.50;5073308;28;20213;-80
2024/03/31 02:15:11;;;;;;;10.90;3.87;;;;;;;9.63;100.00;96548.38;5073699;28;20207;-79
2024/03/31 02:17:37;;;;;;;14.77;3.97;;;;;;;9.64;100.00;96547.41;5073625;28;20223;-78
2024/03/31 02:20:06;;;;;;;10.87;3.20;;;;;;;9.54;100.00;96546.59;5073404;28;20230;-79
2024/03/31 02:22:33;;;;;;;10.73;3.50;;;;;;;9.60;100.00;96546.03;5073946;28;20246;-79
2024/03/31 02:24:58;;;;;;;14.27;4.40;;;;;;;9.59;100.00;96549.63;5074151;28;20558;-80
2024/03/31 02:27:25;;;;;;;8.23;2.93;;;;;;;9.51;100.00;96531.88;5073541;28;20229;-78
2024/03/31 02:29:50;;;;;;;10.33;3.37;;;;;;;9.52;100.00;96525.63;5072194;28;20227;-79
2024/03/31 02:32:18;;;;;;;9.43;3.50;;;;;;;9.65;100.00;96509.50;5072855;28;20592;-79
2024/03/31 02:34:44;;;;;;;11.70;3.60;;;;;;;9.70;100.00;96496.72;5072587;28;20224;-78
2024/03/31 02:37:10;;;;;;;12.80;3.40;;;;;;;9.62;100.00;96472.88;5072646;28;20211;-79
2024/03/31 02:39:36;;;;;;;16.63;4.40;;;;;;;9.56;100.00;96469.00;5073869;28;20231;-77
2024/03/31 02:42:03;;;;;;;11.40;3.07;;;;;;;9.46;100.00;96472.59;5074414;28;20666;-77
2024/03/31 02:44:28;;;;;;;8.70;2.93;;;;;;;9.41;100.00;96474.81;5073789;28;20220;-78
2024/03/31 02:46:55;;;;;;;9.80;3.97;;;;;;;9.34;100.00;96474.56;5073354;28;20203;-79
2024/03/31 02:49:22;;;;;;;9.93;2.97;;;;;;;9.33;100.00;96483.44;5054368;28;20778;-78
2024/03/31 02:51:48;;;;;;;10.53;3.37;;;;;;;9.35;100.00;96499.94;5074191;28;20302;-78
2024/03/31 02:54:14;;;;;;;17.60;3.43;;;;;;;9.40;100.00;96510.06;5073662;28;20207;-78
2024/03/31 02:56:40;;;;;;;10.53;3.47;;;;;;;9.37;100.00;96523.53;5074357;28;20589;-79
2024/03/31 02:59:06;;;;;;;9.10;2.70;;;;;;;9.33;100.00;96525.63;5073779;28;20590;-78
2024/03/31 03:01:33;;;;;;;14.93;3.90;;;;;;;9.42;100.00;96523.97;5072768;28;20294;-79
2024/03/31 03:03:58;;;;;;;16.20;3.40;;;;;;;9.57;100.00;96512.84;5072476;28;20215;-80
2024/03/31 03:06:26;;;;;;;9.20;2.70;;;;;;;9.63;100.00;96511.47;5073076;28;20212;-80
2024/03/31 03:08:52;;;;;;;11.23;3.13;;;;;;;9.52;100.00;96516.88;5073662;28;20231;-78
2024/03/31 03:11:19;;;;;;;11.63;3.87;;;;;;;9.45;100.00;96523.66;5080975;28;20241;-78
2024/03/31 03:13:44;;;;;;;13.03;3.43;;;;;;;9.42;100.00;96508.94;5092511;28;20271;-78
2024/03/31 03:16:11;;;;;;;12.43;3.50;;;;;;;9.41;100.00;96507.28;5074469;28;20248;-78
2024/03/31 03:18:36;;;;;;;12.57;3.23;;;;;;;9.32;100.00;96507.28;5074612;28;20209;-77
2024/03/31 03:21:03;;;;;;;6.93;3.10;;;;;;;9.23;100.00;96494.94;5073502;28;20228;-78
2024/03/31 03:23:31;;;;;;;13.90;3.53;;;;;;;9.07;100.00;96471.75;5072997;28;20221;-78
2024/03/31 03:25:59;;;;;;;11.07;3.20;;;;;;;9.03;100.00;96480.06;5083752;28;20550;-76
2024/03/31 03:28:25;;;;;;;11.23;4.00;;;;;;;8.88;100.00;96497.25;5091481;28;20322;-78
2024/03/31 03:30:52;;;;;;;11.27;3.73;;;;;;;8.80;100.00;96499.69;5079510;28;20266;-79
2024/03/31 03:33:17;;;;;;;10.10;3.37;;;;;;;8.68;100.00;96492.88;5076375;28;20211;-79
2024/03/31 03:35:44;;;;;;;8.90;3.77;;;;;;;8.62;100.00;96496.88;5076121;28;20214;-79
2024/03/31 03:38:13;;;;;;;10.17;3.33;;;;;;;8.53;100.00;96496.84;5076370;28;20630;-79
2024/03/31 03:40:41;;;;;;;6.23;2.93;;;;;;;8.46;100.00;96493.09;5076551;28;20234;-80
2024/03/31 03:43:06;;;;;;;10.97;3.07;;;;;;;8.33;100.00;96480.13;5076139;28;20203;-79
2024/03/31 03:45:33;;;;;;;10.30;3.43;;;;;;;8.35;100.00;96478.22;5075706;28;20223;-79
2024/03/31 03:47:58;;;;;;;13.17;4.03;;;;;;;8.27;100.00;96482.47;5076424;28;20234;-79
2024/03/31 03:50:25;;;;;;;13.17;3.50;;;;;;;8.17;100.00;96497.34;5076157;28;20223;-79
2024/03/31 03:52:53;;;;;;;10.00;2.93;;;;;;;8.08;100.00;96495.50;5076612;28;20237;-79
2024/03/31 03:55:19;;;;;;;10.13;3.13;;;;;;;7.98;100.00;96494.63;5076174;28;20246;-79
2024/03/31 03:57:46;;;;;;;10.43;3.00;;;;;;;7.90;100.00;96486.56;5075350;28;20206;-79
2024/03/31 04:00:13;;;;;;;6.17;3.13;;;;;;;7.92;100.00;96484.63;5075595;28;20238;-78
2024/03/31 04:02:39;;;;;;;8.90;3.17;;;;;;;7.90;100.00;96486.56;5076025;28;20207;-79
2024/03/31 04:05:06;;;;;;;16.20;3.80;;;;;;;7.96;100.00;96493.94;5075484;28;20223;-79
2024/03/31 04:07:31;;;;;;;8.03;3.57;;;;;;;7.85;100.00;96488.72;5075635;28;20244;-78
2024/03/31 04:09:58;;;;;;;7.37;3.80;;;;;;;7.84;100.00;96481.81;5076235;28;20231;-79
2024/03/31 04:12:23;;;;;;;7.93;3.77;;;;;;;7.79;100.00;96470.84;5079219;28;20212;-78
2024/03/31 04:14:51;;;;;;;9.07;3.23;;;;;;;7.72;100.00;96477.56;5075826;28;20211;-79
2024/03/31 04:17:17;;;;;;;17.43;3.70;;;;;;;7.69;100.00;96473.41;5080905;28;20207;-78
2024/03/31 04:19:43;;;;;;;8.80;3.83;;;;;;;7.69;100.00;96478.66;5083043;28;20291;-78
2024/03/31 04:22:09;;;;;;;9.90;3.60;;;;;;;7.69;100.00;96483.06;5083340;28;20219;-78
2024/03/31 04:24:35;;;;;;;10.07;3.70;;;;;;;7.72;100.00;96473.13;5082250;28;20203;-78
2024/03/31 04:27:01;;;;;;;9.73;4.03;;;;;;;7.62;100.00;96479.31;5064779;28;20215;-78
2024/03/31 04:29:27;;;;;;;7.33;3.20;;;;;;;7.51;100.00;96485.47;5079631;28;20329;-78
2024/03/31 04:31:55;;;;;;;11.83;3.87;;;;;;;7.44;100.00;96500.06;5076829;28;20207;-78
2024/03/31 04:34:23;;;;;;;7.80;3.53;;;;;;;7.33;100.00;96509.78;5075194;28;20213;-79
2024/03/31 04:36:49;;;;;;;7.57;3.43;;;;;;;7.27;100.00;96512.09;5074157;28;20210;-79
2024/03/31 04:39:15;;;;;;;12.40;4.07;;;;;;;7.29;100.00;96511.81;5074494;28;20246;-78
2024/03/31 04:41:41;;;;;;;14.43;4.20;;;;;;;7.33;100.00;96520.28;5075270;28;20215;-78
2024/03/31 04:44:07;;;;;;;12.03;3.87;;;;;;;7.33;100.00;96522.91;5074814;28;20221;-79
2024/03/31 04:46:33;;;;;;;9.17;4.33;;;;;;;7.33;100.00;96523.75;5074419;28;20217;-79
2024/03/31 04:49:01;;;;;;;6.97;3.17;;;;;;;7.33;100.00;96515.03;5075056;28;20229;-78
2024/03/31 04:51:26;;;;;;;11.73;4.20;;;;;;;7.34;100.00;96512.28;5076338;28;20564;-78
2024/03/31 04:53:53;;;;;;;10.47;3.70;;;;;;;7.42;100.00;96507.22;5075224;28;20210;-78
2024/03/31 04:56:19;;;;;;;10.70;3.63;;;;;;;7.38;100.00;96498.91;5075223;28;20680;-78
2024/03/31 04:58:45;;;;;;;8.73;3.80;;;;;;;7.36;100.00;96512.16;5057373;28;20214;-78
2024/03/31 05:01:11;;;;;;;11.53;3.57;;;;;;;7.37;100.00;96524.34;5074448;28;20245;-78
2024/03/31 05:03:38;;;;;;;15.90;4.20;;;;;;;7.42;100.00;96522.19;5075268;28;20210;-78
2024/03/31 05:06:05;;;;;;;12.90;4.53;;;;;;;7.40;100.00;96531.97;5075664;28;20211;-78
2024/03/31 05:08:31;;;;;;;11.27;4.43;;;;;;;7.44;100.00;96525.50;5074974;28;20238;-78
2024/03/31 05:10:58;;;;;;;12.07;4.30;;;;;;;7.46;100.00;96529.69;5085947;28;20256;-78
2024/03/31 05:13:27;;;;;;;15.30;4.73;;;;;;;7.55;100.00;96534.19;5090442;28;20211;-78
2024/03/31 05:15:58;;;;;;;12.90;4.97;;;;;;;7.60;100.00;96532.00;5088715;28;20211;-78
2024/03/31 05:18:24;;;;;;;14.70;4.97;;;;;;;7.65;100.00;96535.09;5083488;28;20235;-78
2024/03/31 05:20:55;;;;;;;14.20;5.13;;;;;;;7.71;100.00;96521.44;5074573;28;20241;-79
2024/03/31 05:23:23;;;;;;;14.20;4.87;;;;;;;7.72;100.00;96520.47;5075592;28;20652;-78
2024/03/31 05:25:48;;;;;;;11.53;4.67;;;;;;;7.73;100.00;96510.78;5076558;28;20587;-79
2024/03/31 05:28:15;;;;;;;11.27;4.33;;;;;;;7.75;100.00;96514.13;5074342;28;20235;-79
2024/03/31 05:30:40;;;;;;;9.93;3.83;;;;;;;7.76;100.00;96526.31;5073386;28;20595;-79
2024/03/31 05:33:07;;;;;;;8.17;3.77;;;;;;;7.70;100.00;96524.19;5073509;28;20305;-79
2024/03/31 05:35:32;;;;;;;9.57;4.40;;;;;;;7.64;100.00;96527.31;5073828;28;20214;-79
2024/03/31 05:37:59;;;;;;;7.90;3.53;;;;;;;7.65;100.00;96523.75;5073637;28;20215;-79
2024/03/31 05:40:26;;;;;;;11.13;4.77;;;;;;;7.63;100.00;96528.28;5073352;28;20235;-79
2024/03/31 05:42:53;;;;;;;8.50;3.93;;;;;;;7.65;100.00;96521.13;5073329;28;20210;-79
2024/03/31 05:45:18;;;;;;;12.23;4.47;;;;;;;7.66;100.00;96520.16;5073334;28;20234;-78
2024/03/31 05:47:45;;;;;;;9.40;3.97;;;;;;;7.67;100.00;96514.78;5073610;28;20239;-79
2024/03/31 05:50:11;;;;;;;12.43;4.00;;;;;;;7.70;100.00;96513.66;5072550;28;20720;-79
2024/03/31 05:52:37;;;;;;;13.27;3.57;;;;;;;7.67;100.00;96513.94;5073891;28;20221;-79
2024/03/31 05:55:03;;;;;;;6.20;3.57;;;;;;;7.67;100.00;96509.53;5073602;28;20214;-79
2024/03/31 05:57:31;;;;;;;9.77;3.90;;;;;;;7.71;100.00;96503.03;5073279;28;20211;-79
2024/03/31 05:59:56;;;;;;;8.17;3.37;;;;;;;7.74;100.00;96504.56;5073706;28;20302;-78
2024/03/31 06:02:23;;;;;;;10.83;4.07;;;;;;;7.78;100.00;96492.84;5074566;28;20213;-80
2024/03/31 06:04:48;;;;;;;9.50;4.57;;;;;;;7.83;100.00;96490.66;5074703;28;20206;-78
2024/03/31 06:07:15;;;;;;;12.87;4.53;;;;;;;7.88;100.00;96484.03;5074049;28;20210;-80
2024/03/31 06:09:44;;;;;;;9.70;4.73;;;;;;;7.93;100.00;96478.38;5073977;28;20241;-79
2024/03/31 06:12:10;;;;;;;10.83;4.27;;;;;;;7.92;100.00;96482.00;5073973;28;20210;-77
2024/03/31 06:14:37;;;;;;;10.40;4.50;;;;;;;8.01;100.00;96479.41;5073885;28;20214;-79
2024/03/31 06:17:04;;;;;;;14.27;5.80;;;;;;;8.05;100.00;96458.94;5073371;28;20642;-79
2024/03/31 06:19:30;;;;;;;12.00;5.87;;;;;;;8.11;100.00;96455.78;5073031;28;20230;-79
2024/03/31 06:21:56;;;;;;;6.83;4.03;;;;;;;8.12;100.00;96449.53;5073093;28;20583;-79
2024/03/31 06:24:22;;;;;;;10.43;4.40;;;;;;;8.16;100.00;96435.16;5055281;28;20215;-78
2024/03/31 06:26:49;;;;;;;11.80;5.10;;;;;;;8.21;100.00;96433.00;5072959;28;20207;-77
2024/03/31 06:29:14;;;;;;;15.73;6.50;;;;;;;8.34;100.00;96423.91;5072156;28;20246;-77
2024/03/31 06:31:42;;;;;;;14.23;5.70;;;;;;;8.54;100.00;96430.06;5073222;28;20207;-78
2024/03/31 06:34:08;;;;;;;13.93;5.60;;;;;;;8.58;100.00;96423.56;5073762;28;20211;-79
2024/03/31 06:36:34;;;;;;;9.87;5.83;;;;;;;8.67;100.00;96425.38;5072466;28;20224;-79
2024/03/31 06:39:00;;;;;;;11.60;6.67;;;;;;;8.74;100.00;96426.50;5072552;28;20204;-80
2024/03/31 06:41:26;;;;;;;10.27;5.43;;;;;;;8.85;100.00;96429.00;5072321;28;20240;-80
2024/03/31 06:43:52;;;;;;;11.90;5.63;;;;;;;8.98;100.00;96422.50;5072270;28;20207;-79
2024/03/31 06:46:18;;;;;;;18.13;6.63;;;;;;;9.21;100.00;96425.72;5075959;28;20823;-79
2024/03/31 06:48:45;;;;;;;10.63;5.47;;;;;;;9.26;100.00;96436.66;5072879;28;20278;-79
2024/03/31 06:51:12;;;;;;;11.13;5.13;;;;;;;9.31;100.00;96448.44;5071961;28;20231;-79
2024/03/31 06:53:37;;;;;;;11.40;5.43;;;;;;;9.37;100.00;96453.16;5072440;28;20204;-79
2024/03/31 06:56:04;;;;;;;10.47;5.33;;;;;;;9.36;100.00;96458.59;5072628;28;20593;-79
2024/03/31 06:58:30;;;;;;;13.93;5.77;;;;;;;9.37;100.00;96441.81;5077437;28;20213;-78
2024/03/31 07:00:57;;;;;;;12.53;4.83;;;;;;;9.34;100.00;96442.06;5077716;28;20229;-77
2024/03/31 07:03:23;;;;;;;15.33;5.27;;;;;;;9.26;100.00;96434.88;5079432;28;20593;-78
2024/03/31 07:05:51;;;;;;;12.97;5.67;;;;;;;9.26;100.00;96441.94;5076939;28;20207;-78
2024/03/31 07:08:16;;;;;;;15.37;5.80;;;;;;;9.21;100.00;96446.78;5082333;28;20235;-78
2024/03/31 07:10:43;;;;;;;15.77;5.80;;;;;;;9.29;100.00;96439.00;5080815;28;20672;-78
2024/03/31 07:13:08;;;;;;;11.47;5.40;;;;;;;9.47;100.00;96425.00;5076069;28;20208;-78
2024/03/31 07:15:35;;;;;;;11.27;5.20;;;;;;;9.60;100.00;96427.34;5075678;28;20210;-79
2024/03/31 07:18:05;;;;;;;12.53;5.43;;;;;;;9.77;100.00;96411.63;5075371;28;20217;-79
2024/03/31 07:20:31;;;;;;;14.07;6.47;;;;;;;9.93;100.00;96408.38;5076929;28;20468;-79
2024/03/31 07:22:58;;;;;;;11.73;5.53;;;;;;;10.03;100.00;96415.31;5076181;28;20215;-77
2024/03/31 07:25:25;;;;;;;12.00;6.20;;;;;;;10.06;100.00;96424.75;5077054;28;20292;-78
2024/03/31 07:27:50;;;;;;;14.90;5.60;;;;;;;10.17;100.00;96429.88;5076854;28;20210;-78
2024/03/31 07:30:17;;;;;;;12.07;5.33;;;;;;;10.25;100.00;96440.53;5076439;28;20256;-80
2024/03/31 07:32:42;;;;;;;15.67;6.17;;;;;;;10.39;100.00;96440.06;5076794;28;20561;-80
2024/03/31 07:35:09;;;;;;;14.63;5.30;;;;;;;10.46;100.00;96430.59;5079019;28;20216;-79
2024/03/31 07:37:34;;;;;;;12.23;5.70;;;;;;;10.50;100.00;96435.41;5079235;28;20278;-79
2024/03/31 07:40:02;;;;;;;12.37;5.30;;;;;;;10.62;100.00;96431.59;5079557;28;20231;-80
2024/03/31 07:42:28;;;;;;;15.23;5.23;;;;;;;10.64;100.00;96428.81;5079977;28;20214;-80
2024/03/31 07:44:54;;;;;;;13.40;5.00;;;;;;;10.82;100.00;96419.94;5094258;22;20249;-79
2024/03/31 07:47:20;;;;;;;14.03;4.60;;;;;;;10.99;100.00;96420.94;5077542;28;20217;-79
2024/03/31 07:49:46;;;;;;;11.67;4.53;;;;;;;10.99;100.00;96415.66;5071635;28;20605;-79
2024/03/31 07:52:12;;;;;;;14.83;4.53;;;;;;;11.22;100.00;96412.41;5057560;28;20219;-79
2024/03/31 07:54:38;;;;;;;10.67;4.30;;;;;;;11.42;100.00;96413.06;5056965;28;20211;-79
2024/03/31 07:57:05;;;;;;;11.87;4.67;;;;;;;11.60;100.00;96411.28;5039444;28;20227;-79
2024/03/31 07:59:32;;;;;;;10.03;4.00;;;;;;;11.73;100.00;96411.72;5056472;28;20729;-79
2024/03/31 08:01:58;;;;;;;14.10;4.27;;;;;;;11.65;100.00;96406.34;5056809;28;20212;-79
2024/03/31 08:04:24;;;;;;;10.40;3.70;;;;;;;11.64;100.00;96394.94;5057810;28;20705;-78
2024/03/31 08:06:50;;;;;;;11.17;4.47;;;;;;;11.70;100.00;96385.56;5057941;28;20212;-78
2024/03/31 08:09:17;;;;;;;7.43;3.83;;;;;;;11.77;100.00;96391.88;5057787;28;20238;-79
2024/03/31 08:11:44;;;;;;;11.90;3.83;;;;;;;11.84;100.00;96387.63;5053558;28;20270;-80
2024/03/31 08:14:12;;;;;;;10.40;4.27;;;;;;;11.99;100.00;96391.38;5055525;28;20666;-80
2024/03/31 08:16:37;;;;;;;10.63;3.10;;;;;;;12.30;100.00;96403.13;5056183;28;20211;-78
2024/03/31 08:19:04;;;;;;;10.57;4.03;;;;;;;12.43;100.00;96396.41;5054213;28;20222;-80
2024/03/31 08:21:29;;;;;;;12.47;3.50;;;;;;;12.56;100.00;96395.94;5056130;28;20212;-78
2024/03/31 08:23:56;;;;;;;10.57;3.20;;;;;;;12.68;100.00;96384.06;5056068;28;20213;-80
2024/03/31 08:26:22;;;;;;;11.10;3.20;;;;;;;12.83;100.00;96387.78;5056787;28;20214;-78
2024/03/31 08:28:48;;;;;;;10.73;3.33;;;;;;;12.93;100.00;96372.53;5057314;28;20232;-78
2024/03/31 08:31:15;;;;;;;11.03;3.27;;;;;;;12.96;100.00;96373.06;5059019;28;20251;-82
2024/03/31 08:33:42;;;;;;;12.50;3.03;;;;;;;13.19;100.00;96378.56;5060965;28;20576;-83
2024/03/31 08:36:07;;;;;;;7.57;2.73;;;;;;;13.30;100.00;96370.28;5061316;28;20303;-81
2024/03/31 08:38:34;;;;;;;11.90;2.87;;;;;;;13.31;100.00;96358.66;5061867;28;20236;-82
2024/03/31 08:41:04;;;;;;;11.73;3.13;;;;;;;13.46;100.00;96352.53;5060404;28;20229;-82
2024/03/31 08:43:37;;;;;;;15.17;3.63;;;;;;;13.38;100.00;96339.28;5058238;28;20292;-80
2024/03/31 08:46:08;;;;;;;9.80;3.30;;;;;;;13.45;100.00;96344.75;5058114;28;20225;-80
2024/03/31 08:48:38;;;;;;;12.30;2.97;;;;;;;13.59;100.00;96336.13;5058950;28;20264;-80
2024/03/31 08:51:05;;;;;;;10.13;3.03;;;;;;;13.67;100.00;96333.44;5059830;28;20228;-80
2024/03/31 08:53:32;;;;;;;9.30;2.67;;;;;;;13.65;100.00;96327.47;5059726;28;20201;-79
2024/03/31 08:55:58;;;;;;;5.10;2.77;;;;;;;13.53;100.00;96326.16;5059314;28;20239;-80
2024/03/31 08:58:25;;;;;;;11.77;2.70;;;;;;;13.56;100.00;96323.19;5060744;28;20278;-86
2024/03/31 09:00:51;;;;;;;9.97;2.97;;;;;;;13.75;100.00;96330.78;5062721;28;20571;-85
2024/03/31 09:03:18;;;;;;;12.43;3.00;;;;;;;13.73;100.00;96324.81;5061607;28;20241;-83
2024/03/31 09:05:45;;;;;;;6.90;2.37;;;;;;;13.85;99.62;96310.19;5061595;28;20202;-86
2024/03/31 09:08:12;;;;;;;7.33;2.77;;;;;;;13.89;99.79;96298.22;5059346;28;20211;-85
2024/03/31 09:10:38;;;;;;;10.27;3.20;;;;;;;13.93;99.00;96288.94;5057680;28;20241;-78
2024/03/31 09:13:06;;;;;;;10.67;2.90;;;;;;;13.99;98.25;96299.69;5053647;28;20211;-77
2024/03/31 09:15:33;;;;;;;10.30;2.77;;;;;;;14.25;100.00;96331.34;5053854;28;20217;-78
2024/03/31 09:17:59;;;;;;;7.03;3.00;;;;;;;14.45;97.77;96300.69;5053050;28;20244;-79
2024/03/31 09:20:25;;;;;;;12.80;3.33;;;;;;;14.77;100.00;96316.44;5053614;28;20712;-80
2024/03/31 09:22:53;;;;;;;8.23;2.70;;;;;;;14.99;95.92;96284.56;5054221;28;20285;-80
2024/03/31 09:25:19;;;;;;;7.20;2.30;;;;;;;15.02;93.06;96273.56;5054830;28;20213;-80
2024/03/31 09:27:46;;;;;;;7.70;2.80;;;;;;;15.18;96.31;96288.56;5056767;28;20301;-80
2024/03/31 09:30:12;;;;;;;7.40;3.00;;;;;;;15.26;90.57;96253.91;5055495;28;20755;-80
2024/03/31 09:32:39;;;;;;;9.23;3.17;;;;;;;15.08;90.08;96256.88;5055140;28;20221;-80
2024/03/31 09:35:05;;;;;;;8.77;3.00;;;;;;;15.00;91.00;96269.41;5037570;28;20278;-80
2024/03/31 09:37:32;;;;;;;5.47;2.30;;;;;;;14.85;88.54;96255.25;5055061;28;20237;-80
2024/03/31 09:39:59;;;;;;;14.57;3.13;;;;;;;14.65;90.75;96264.69;5055213;28;20680;-80
2024/03/31 09:42:26;;;;;;;7.37;2.40;;;;;;;14.62;93.62;96283.66;5055315;28;20698;-80
2024/03/31 09:44:51;;;;;;;11.93;2.80;;;;;;;14.74;96.31;96287.56;5055758;28;20229;-80
2024/03/31 09:47:27;;;;;;;9.03;2.53;;;;;;;15.10;98.03;96285.97;5055759;28;20215;-80
2024/03/31 09:50:01;;;;;;;12.17;2.97;;;;;;;15.34;93.19;96251.22;5059189;28;20238;-81
2024/03/31 09:52:32;;;;;;;10.10;2.47;;;;;;;15.48;91.18;96239.75;5061962;28;20206;-77
2024/03/31 09:55:06;;;;;;;8.30;2.43;;;;;;;15.47;88.05;96222.94;5055883;28;20607;-77
2024/03/31 09:57:38;;;;;;;5.97;2.40;;;;;;;15.35;89.56;96228.91;5051556;28;20210;-76
2024/03/31 10:00:07;;;;;;;8.30;2.33;;;;;;;15.37;89.29;96218.91;5051417;28;20238;-76
2024/03/31 10:02:35;;;;;;;6.53;2.50;;;;;;;15.29;86.09;96201.16;5051536;28;20207;-77
2024/03/31 10:05:06;;;;;;;10.20;2.33;;;;;;;15.14;87.84;96202.13;5051353;28;20215;-77
2024/03/31 10:07:34;;;;;;;9.43;2.70;;;;;;;15.14;87.45;96199.47;5051647;28;20238;-76
2024/03/31 10:10:02;;;;;;;6.47;2.20;;;;;;;15.29;86.05;96184.34;5051500;28;20234;-77
2024/03/31 10:12:29;;;;;;;10.90;2.07;;;;;;;15.60;84.55;96182.38;5051547;28;20678;-76
2024/03/31 10:14:56;;;;;;;11.20;2.53;;;;;;;15.90;84.75;96192.84;5051377;28;20235;-76
2024/03/31 10:17:23;;;;;;;7.73;1.87;;;;;;;16.13;87.16;96213.03;5051673;28;20229;-78
2024/03/31 10:19:50;;;;;;;7.50;2.23;;;;;;;16.33;83.19;96182.09;5051222;28;20697;-77
2024/03/31 10:22:17;;;;;;;7.07;2.00;;;;;;;16.54;82.19;96187.50;5051461;28;20247;-77
2024/03/31 10:24:44;;;;;;;14.53;2.80;;;;;;;16.69;77.27;96166.91;5051374;28;20212;-78
2024/03/31 10:27:14;;;;;;;8.13;1.97;;;;;;;16.70;73.99;96144.56;5051549;28;20241;-77
2024/03/31 10:29:41;;;;;;;10.40;2.20;;;;;;;16.82;81.96;96188.38;5050750;28;20239;-77
2024/03/31 10:32:07;;;;;;;10.87;1.90;;;;;;;16.96;78.31;96157.31;5051827;28;20203;-77
2024/03/31 10:34:33;;;;;;;12.10;2.47;;;;;;;17.06;76.82;96152.47;5051597;28;20215;-77
2024/03/31 10:36:59;;;;;;;11.30;2.23;;;;;;;17.15;74.55;96146.78;5055098;28;20211;-78
2024/03/31 10:39:25;;;;;;;8.13;2.47;;;;;;;17.24;74.30;96140.28;5055156;28;20589;-77
2024/03/31 10:41:52;;;;;;;7.27;1.77;;;;;;;17.29;72.26;96127.16;5055567;28;20214;-77
2024/03/31 10:44:19;;;;;;;5.90;2.40;;;;;;;17.23;68.92;96098.59;5055169;28;20223;-77
2024/03/31 10:46:46;;;;;;;6.90;2.00;;;;;;;17.36;71.87;96128.03;5055137;28;20242;-77
2024/03/31 10:49:12;;;;;;;10.43;2.53;;;;;;;17.42;71.55;96129.94;5055058;28;20239;-77
2024/03/31 10:51:42;;;;;;;9.70;1.90;;;;;;;17.53;66.78;96093.84;5054956;28;20673;-77
2024/03/31 10:54:28;;;;;;;9.63;2.10;;;;;;;17.50;63.42;96060.34;5054987;28;20204;-77
2024/03/31 10:57:00;;;;;;;12.53;2.90;;;;;;;17.50;68.85;96112.94;5040314;28;20208;-77
2024/03/31 10:59:29;;;;;;;6.03;1.77;;;;;;;17.44;64.89;96087.84;5054753;28;20732;-77
2024/03/31 11:01:57;;;;;;;11.77;2.73;;;;;;;17.43;66.50;96107.56;5055739;28;20565;-80
2024/03/31 11:04:24;;;;;;;9.27;2.20;;;;;;;17.60;67.10;96113.41;5062874;28;20309;-83
2024/03/31 11:06:51;;;;;;;8.60;1.70;;;;;;;17.65;66.57;96105.63;5064142;28;20639;-83
2024/03/31 11:09:17;;;;;;;9.37;2.10;;;;;;;17.64;65.83;96094.13;5044461;28;20228;-84
2024/03/31 11:11:44;;;;;;;8.27;1.53;;;;;;;17.61;65.22;96091.03;5044097;28;20214;-81
2024/03/31 11:14:10;;;;;;;6.53;2.07;;;;;;;17.55;67.18;96102.50;5042764;28;20208;-82
2024/03/31 11:16:38;;;;;;;9.77;1.90;;;;;;;17.52;66.19;96092.19;5061961;28;20211;-82
2024/03/31 11:19:05;;;;;;;9.17;1.93;;;;;;;17.49;64.72;96085.41;5059271;28;20208;-80
2024/03/31 11:21:33;;;;;;;13.30;2.20;;;;;;;17.44;66.64;96098.53;5059399;28;20239;-82
2024/03/31 11:24:00;;;;;;;6.83;2.00;;;;;;;17.36;64.24;96074.63;5060090;28;20208;-83